sensor_id;sensor_type;location;lat;lon;timestamp;P1;durP1;ratioP1;P2;durP2;ratioP2
32427;SDS011;18882;50.952;4.366;2023-03-31T00:00:42;10.20;;;2.38;;
32427;SDS011;18882;50.952;4.366;2023-03-31T00:03:10;9.65;;;1.67;;
32427;SDS011;18882;50.952;4.366;2023-03-31T00:06:22;6.45;;;1.40;;
32427;SDS011;18882;50.952;4.366;2023-03-31T00:09:11;11.82;;;2.05;;
32427;SDS011;18882;50.952;4.366;2023-03-31T00:11:42;9.20;;;2.08;;
32427;SDS011;18882;50.952;4.366;2023-03-31T00:14:11;15.55;;;2.17;;
32427;SDS011;18882;50.952;4.366;2023-03-31T00:16:50;12.77;;;2.17;;
32427;SDS011;18882;50.952;4.366;2023-03-31T00:19:19;12.35;;;2.20;;
32427;SDS011;18882;50.952;4.366;2023-03-31T00:22:05;17.08;;;2.75;;
32427;SDS011;18882;50.952;4.366;2023-03-31T00:28:01;5.90;;;2.08;;
32427;SDS011;18882;50.952;4.366;2023-03-31T00:30:58;13.48;;;1.95;;
32427;SDS011;18882;50.952;4.366;2023-03-31T00:36:40;19.63;;;1.97;;
32427;SDS011;18882;50.952;4.366;2023-03-31T00:39:11;7.90;;;1.55;;
32427;SDS011;18882;50.952;4.366;2023-03-31T00:41:42;8.68;;;1.60;;
32427;SDS011;18882;50.952;4.366;2023-03-31T00:44:21;6.63;;;1.20;;
32427;SDS011;18882;50.952;4.366;2023-03-31T00:53:10;8.63;;;1.77;;
32427;SDS011;18882;50.952;4.366;2023-03-31T00:56:19;12.68;;;1.27;;
32427;SDS011;18882;50.952;4.366;2023-03-31T00:58:46;8.27;;;1.58;;
32427;SDS011;18882;50.952;4.366;2023-03-31T01:01:15;12.13;;;1.45;;
32427;SDS011;18882;50.952;4.366;2023-03-31T01:03:53;12.85;;;1.52;;
32427;SDS011;18882;50.952;4.366;2023-03-31T01:06:56;5.28;;;0.90;;
32427;SDS011;18882;50.952;4.366;2023-03-31T01:09:29;15.20;;;1.65;;
32427;SDS011;18882;50.952;4.366;2023-03-31T01:12:05;8.07;;;1.42;;
32427;SDS011;18882;50.952;4.366;2023-03-31T01:14:50;17.80;;;2.80;;
32427;SDS011;18882;50.952;4.366;2023-03-31T01:17:17;11.95;;;1.73;;
32427;SDS011;18882;50.952;4.366;2023-03-31T01:28:22;7.47;;;2.08;;
32427;SDS011;18882;50.952;4.366;2023-03-31T01:34:23;12.57;;;1.98;;
32427;SDS011;18882;50.952;4.366;2023-03-31T01:46:36;13.73;;;1.35;;
32427;SDS011;18882;50.952;4.366;2023-03-31T01:51:59;15.93;;;1.38;;
32427;SDS011;18882;50.952;4.366;2023-03-31T01:54:50;7.90;;;1.40;;
32427;SDS011;18882;50.952;4.366;2023-03-31T02:00:18;9.80;;;1.15;;
32427;SDS011;18882;50.952;4.366;2023-03-31T02:05:31;9.10;;;1.38;;
32427;SDS011;18882;50.952;4.366;2023-03-31T02:10:48;8.73;;;1.23;;
32427;SDS011;18882;50.952;4.366;2023-03-31T02:13:16;12.88;;;0.93;;
32427;SDS011;18882;50.952;4.366;2023-03-31T02:15:47;3.38;;;1.00;;
32427;SDS011;18882;50.952;4.366;2023-03-31T02:18:28;5.35;;;0.70;;
32427;SDS011;18882;50.952;4.366;2023-03-31T02:20:57;6.78;;;0.77;;
32427;SDS011;18882;50.952;4.366;2023-03-31T02:23:25;4.18;;;1.42;;
32427;SDS011;18882;50.952;4.366;2023-03-31T02:26:15;6.35;;;1.30;;
32427;SDS011;18882;50.952;4.366;2023-03-31T02:28:44;7.05;;;1.25;;
32427;SDS011;18882;50.952;4.366;2023-03-31T02:34:10;9.85;;;1.13;;
32427;SDS011;18882;50.952;4.366;2023-03-31T02:36:36;4.72;;;0.88;;
32427;SDS011;18882;50.952;4.366;2023-03-31T02:39:05;8.55;;;1.08;;
32427;SDS011;18882;50.952;4.366;2023-03-31T02:41:38;3.00;;;0.90;;
32427;SDS011;18882;50.952;4.366;2023-03-31T02:44:48;4.90;;;1.08;;
32427;SDS011;18882;50.952;4.366;2023-03-31T02:47:14;7.35;;;0.68;;
32427;SDS011;18882;50.952;4.366;2023-03-31T02:49:44;16.48;;;1.20;;
32427;SDS011;18882;50.952;4.366;2023-03-31T02:52:33;5.60;;;1.10;;
32427;SDS011;18882;50.952;4.366;2023-03-31T02:56:10;7.93;;;0.65;;
32427;SDS011;18882;50.952;4.366;2023-03-31T02:59:32;6.22;;;1.10;;
32427;SDS011;18882;50.952;4.366;2023-03-31T03:02:57;6.88;;;1.25;;
32427;SDS011;18882;50.952;4.366;2023-03-31T03:18:37;3.75;;;0.75;;
32427;SDS011;18882;50.952;4.366;2023-03-31T03:21:03;10.18;;;0.85;;
32427;SDS011;18882;50.952;4.366;2023-03-31T03:23:29;12.13;;;1.10;;
32427;SDS011;18882;50.952;4.366;2023-03-31T03:25:55;3.13;;;1.13;;
32427;SDS011;18882;50.952;4.366;2023-03-31T03:28:21;9.00;;;1.30;;
32427;SDS011;18882;50.952;4.366;2023-03-31T03:30:47;3.88;;;1.35;;
32427;SDS011;18882;50.952;4.366;2023-03-31T03:33:12;4.90;;;0.47;;
32427;SDS011;18882;50.952;4.366;2023-03-31T03:35:40;7.65;;;1.00;;
32427;SDS011;18882;50.952;4.366;2023-03-31T03:38:06;8.40;;;1.02;;
32427;SDS011;18882;50.952;4.366;2023-03-31T03:40:32;12.07;;;1.67;;
32427;SDS011;18882;50.952;4.366;2023-03-31T03:42:58;7.03;;;1.05;;
32427;SDS011;18882;50.952;4.366;2023-03-31T03:45:23;8.88;;;0.85;;
32427;SDS011;18882;50.952;4.366;2023-03-31T03:47:49;3.08;;;0.80;;
32427;SDS011;18882;50.952;4.366;2023-03-31T03:50:15;8.40;;;1.00;;
32427;SDS011;18882;50.952;4.366;2023-03-31T03:52:40;6.45;;;0.75;;
32427;SDS011;18882;50.952;4.366;2023-03-31T03:55:06;7.60;;;0.63;;
32427;SDS011;18882;50.952;4.366;2023-03-31T03:57:32;3.15;;;0.80;;
32427;SDS011;18882;50.952;4.366;2023-03-31T03:59:58;9.02;;;1.08;;
32427;SDS011;18882;50.952;4.366;2023-03-31T04:02:23;10.25;;;1.00;;
32427;SDS011;18882;50.952;4.366;2023-03-31T04:04:52;1.65;;;0.50;;
32427;SDS011;18882;50.952;4.366;2023-03-31T04:07:17;5.85;;;0.80;;
32427;SDS011;18882;50.952;4.366;2023-03-31T04:09:43;4.70;;;0.57;;
32427;SDS011;18882;50.952;4.366;2023-03-31T04:12:09;4.43;;;0.75;;
32427;SDS011;18882;50.952;4.366;2023-03-31T04:14:34;1.17;;;0.50;;
32427;SDS011;18882;50.952;4.366;2023-03-31T04:17:00;4.97;;;0.65;;
32427;SDS011;18882;50.952;4.366;2023-03-31T04:19:26;1.40;;;0.30;;
32427;SDS011;18882;50.952;4.366;2023-03-31T04:21:52;0.95;;;0.40;;
32427;SDS011;18882;50.952;4.366;2023-03-31T04:24:28;2.53;;;0.30;;
32427;SDS011;18882;50.952;4.366;2023-03-31T04:26:58;2.35;;;0.13;;
32427;SDS011;18882;50.952;4.366;2023-03-31T04:29:24;1.25;;;0.20;;
32427;SDS011;18882;50.952;4.366;2023-03-31T04:31:54;0.25;;;0.20;;
32427;SDS011;18882;50.952;4.366;2023-03-31T04:34:23;2.20;;;0.20;;
32427;SDS011;18882;50.952;4.366;2023-03-31T04:36:50;0.65;;;0.15;;
32427;SDS011;18882;50.952;4.366;2023-03-31T04:39:20;2.67;;;0.40;;
32427;SDS011;18882;50.952;4.366;2023-03-31T04:41:55;1.23;;;0.40;;
32427;SDS011;18882;50.952;4.366;2023-03-31T04:44:22;1.63;;;0.40;;
32427;SDS011;18882;50.952;4.366;2023-03-31T04:46:48;1.60;;;0.50;;
32427;SDS011;18882;50.952;4.366;2023-03-31T04:49:13;9.40;;;0.82;;
32427;SDS011;18882;50.952;4.366;2023-03-31T04:51:39;5.05;;;0.80;;
32427;SDS011;18882;50.952;4.366;2023-03-31T04:54:05;4.70;;;1.10;;
32427;SDS011;18882;50.952;4.366;2023-03-31T04:56:31;5.70;;;1.10;;
32427;SDS011;18882;50.952;4.366;2023-03-31T04:58:57;4.47;;;0.88;;
32427;SDS011;18882;50.952;4.366;2023-03-31T05:01:22;3.88;;;1.20;;
32427;SDS011;18882;50.952;4.366;2023-03-31T05:03:48;6.55;;;1.15;;
32427;SDS011;18882;50.952;4.366;2023-03-31T05:06:17;3.63;;;1.10;;
32427;SDS011;18882;50.952;4.366;2023-03-31T05:08:42;9.65;;;1.23;;
32427;SDS011;18882;50.952;4.366;2023-03-31T05:11:18;7.32;;;1.20;;
32427;SDS011;18882;50.952;4.366;2023-03-31T05:13:52;11.98;;;2.00;;
32427;SDS011;18882;50.952;4.366;2023-03-31T05:16:18;10.85;;;1.45;;
32427;SDS011;18882;50.952;4.366;2023-03-31T05:18:43;8.05;;;1.30;;
32427;SDS011;18882;50.952;4.366;2023-03-31T05:21:14;10.85;;;1.58;;
32427;SDS011;18882;50.952;4.366;2023-03-31T05:23:41;12.88;;;1.80;;
32427;SDS011;18882;50.952;4.366;2023-03-31T05:26:08;8.63;;;2.13;;
32427;SDS011;18882;50.952;4.366;2023-03-31T05:28:34;15.82;;;1.45;;
32427;SDS011;18882;50.952;4.366;2023-03-31T05:31:00;7.57;;;1.85;;
32427;SDS011;18882;50.952;4.366;2023-03-31T05:33:27;11.60;;;1.77;;
32427;SDS011;18882;50.952;4.366;2023-03-31T05:35:53;7.78;;;1.70;;
32427;SDS011;18882;50.952;4.366;2023-03-31T05:38:19;14.32;;;2.10;;
32427;SDS011;18882;50.952;4.366;2023-03-31T05:40:45;10.27;;;2.17;;
32427;SDS011;18882;50.952;4.366;2023-03-31T05:43:11;12.35;;;2.30;;
32427;SDS011;18882;50.952;4.366;2023-03-31T05:45:37;11.07;;;2.20;;
32427;SDS011;18882;50.952;4.366;2023-03-31T05:48:03;11.55;;;1.95;;
32427;SDS011;18882;50.952;4.366;2023-03-31T05:50:29;10.00;;;1.65;;
32427;SDS011;18882;50.952;4.366;2023-03-31T05:52:55;15.32;;;1.52;;
32427;SDS011;18882;50.952;4.366;2023-03-31T05:55:22;8.80;;;1.73;;
32427;SDS011;18882;50.952;4.366;2023-03-31T05:57:47;8.93;;;1.55;;
32427;SDS011;18882;50.952;4.366;2023-03-31T06:00:13;12.25;;;2.10;;
32427;SDS011;18882;50.952;4.366;2023-03-31T06:02:39;16.15;;;1.90;;
32427;SDS011;18882;50.952;4.366;2023-03-31T06:05:05;12.40;;;1.65;;
32427;SDS011;18882;50.952;4.366;2023-03-31T06:07:31;20.05;;;2.30;;
32427;SDS011;18882;50.952;4.366;2023-03-31T06:09:57;13.90;;;1.90;;
32427;SDS011;18882;50.952;4.366;2023-03-31T06:12:22;7.75;;;1.75;;
32427;SDS011;18882;50.952;4.366;2023-03-31T06:14:48;14.13;;;2.53;;
32427;SDS011;18882;50.952;4.366;2023-03-31T06:17:14;15.18;;;2.22;;
32427;SDS011;18882;50.952;4.366;2023-03-31T06:19:39;16.58;;;1.95;;
32427;SDS011;18882;50.952;4.366;2023-03-31T06:22:05;11.07;;;1.58;;
32427;SDS011;18882;50.952;4.366;2023-03-31T06:24:31;9.73;;;1.73;;
32427;SDS011;18882;50.952;4.366;2023-03-31T06:26:57;15.48;;;2.45;;
32427;SDS011;18882;50.952;4.366;2023-03-31T06:29:25;14.27;;;2.75;;
32427;SDS011;18882;50.952;4.366;2023-03-31T06:32:32;15.82;;;2.42;;
32427;SDS011;18882;50.952;4.366;2023-03-31T06:35:46;10.10;;;2.17;;
32427;SDS011;18882;50.952;4.366;2023-03-31T06:38:20;8.93;;;2.33;;
32427;SDS011;18882;50.952;4.366;2023-03-31T06:41:02;13.07;;;2.17;;
32427;SDS011;18882;50.952;4.366;2023-03-31T06:43:29;10.05;;;2.65;;
32427;SDS011;18882;50.952;4.366;2023-03-31T06:45:55;11.95;;;2.42;;
32427;SDS011;18882;50.952;4.366;2023-03-31T06:48:21;15.77;;;2.72;;
32427;SDS011;18882;50.952;4.366;2023-03-31T06:50:48;16.33;;;2.20;;
32427;SDS011;18882;50.952;4.366;2023-03-31T06:53:14;11.75;;;2.33;;
32427;SDS011;18882;50.952;4.366;2023-03-31T06:55:40;11.90;;;2.42;;
32427;SDS011;18882;50.952;4.366;2023-03-31T06:58:06;12.13;;;1.85;;
32427;SDS011;18882;50.952;4.366;2023-03-31T07:00:31;11.15;;;1.95;;
32427;SDS011;18882;50.952;4.366;2023-03-31T07:02:58;13.73;;;2.25;;
32427;SDS011;18882;50.952;4.366;2023-03-31T07:05:23;12.32;;;2.22;;
32427;SDS011;18882;50.952;4.366;2023-03-31T07:07:56;19.65;;;2.53;;
32427;SDS011;18882;50.952;4.366;2023-03-31T07:10:24;13.45;;;2.50;;
32427;SDS011;18882;50.952;4.366;2023-03-31T07:12:51;10.75;;;2.05;;
32427;SDS011;18882;50.952;4.366;2023-03-31T07:15:17;16.40;;;1.98;;
32427;SDS011;18882;50.952;4.366;2023-03-31T07:17:42;11.60;;;1.90;;
32427;SDS011;18882;50.952;4.366;2023-03-31T07:20:09;12.77;;;2.08;;
32427;SDS011;18882;50.952;4.366;2023-03-31T07:22:39;11.93;;;2.20;;
32427;SDS011;18882;50.952;4.366;2023-03-31T07:25:06;20.45;;;4.50;;
32427;SDS011;18882;50.952;4.366;2023-03-31T07:27:35;13.20;;;2.35;;
32427;SDS011;18882;50.952;4.366;2023-03-31T07:30:03;10.77;;;2.35;;
32427;SDS011;18882;50.952;4.366;2023-03-31T07:32:52;12.35;;;2.47;;
32427;SDS011;18882;50.952;4.366;2023-03-31T07:35:28;19.50;;;2.65;;
32427;SDS011;18882;50.952;4.366;2023-03-31T07:37:54;11.38;;;1.73;;
32427;SDS011;18882;50.952;4.366;2023-03-31T07:40:24;16.88;;;1.73;;
32427;SDS011;18882;50.952;4.366;2023-03-31T07:42:54;12.75;;;2.58;;
32427;SDS011;18882;50.952;4.366;2023-03-31T07:45:22;11.13;;;1.33;;
32427;SDS011;18882;50.952;4.366;2023-03-31T07:47:49;10.73;;;1.67;;
32427;SDS011;18882;50.952;4.366;2023-03-31T07:50:16;11.82;;;1.75;;
32427;SDS011;18882;50.952;4.366;2023-03-31T07:52:42;13.32;;;1.88;;
32427;SDS011;18882;50.952;4.366;2023-03-31T07:55:08;16.70;;;2.08;;
32427;SDS011;18882;50.952;4.366;2023-03-31T07:57:37;14.07;;;1.17;;
32427;SDS011;18882;50.952;4.366;2023-03-31T08:00:07;11.07;;;1.80;;
32427;SDS011;18882;50.952;4.366;2023-03-31T08:02:43;17.48;;;2.50;;
32427;SDS011;18882;50.952;4.366;2023-03-31T08:05:11;12.38;;;1.48;;
32427;SDS011;18882;50.952;4.366;2023-03-31T08:07:48;17.48;;;2.00;;
32427;SDS011;18882;50.952;4.366;2023-03-31T08:10:30;11.98;;;2.33;;
32427;SDS011;18882;50.952;4.366;2023-03-31T08:12:56;12.13;;;1.52;;
32427;SDS011;18882;50.952;4.366;2023-03-31T08:15:22;12.32;;;1.60;;
32427;SDS011;18882;50.952;4.366;2023-03-31T08:17:48;18.40;;;2.08;;
32427;SDS011;18882;50.952;4.366;2023-03-31T08:20:14;16.13;;;1.60;;
32427;SDS011;18882;50.952;4.366;2023-03-31T08:22:40;18.10;;;2.00;;
32427;SDS011;18882;50.952;4.366;2023-03-31T08:25:06;9.32;;;1.55;;
32427;SDS011;18882;50.952;4.366;2023-03-31T08:27:36;11.60;;;1.80;;
32427;SDS011;18882;50.952;4.366;2023-03-31T08:30:04;7.22;;;1.65;;
32427;SDS011;18882;50.952;4.366;2023-03-31T08:32:31;11.82;;;1.63;;
32427;SDS011;18882;50.952;4.366;2023-03-31T08:34:58;13.00;;;1.65;;
32427;SDS011;18882;50.952;4.366;2023-03-31T08:37:23;18.17;;;2.10;;
32427;SDS011;18882;50.952;4.366;2023-03-31T08:39:55;14.88;;;1.65;;
32427;SDS011;18882;50.952;4.366;2023-03-31T08:45:36;21.17;;;2.13;;
32427;SDS011;18882;50.952;4.366;2023-03-31T08:50:50;11.02;;;1.83;;
32427;SDS011;18882;50.952;4.366;2023-03-31T08:55:51;14.32;;;1.80;;
32427;SDS011;18882;50.952;4.366;2023-03-31T08:58:30;22.20;;;1.73;;
32427;SDS011;18882;50.952;4.366;2023-03-31T09:15:54;18.60;;;1.80;;
32427;SDS011;18882;50.952;4.366;2023-03-31T09:18:38;13.65;;;1.73;;
32427;SDS011;18882;50.952;4.366;2023-03-31T09:21:20;12.52;;;1.92;;
32427;SDS011;18882;50.952;4.366;2023-03-31T09:23:59;13.68;;;2.20;;
32427;SDS011;18882;50.952;4.366;2023-03-31T09:26:43;14.57;;;2.20;;
32427;SDS011;18882;50.952;4.366;2023-03-31T09:32:14;19.48;;;2.88;;
32427;SDS011;18882;50.952;4.366;2023-03-31T09:34:40;12.82;;;2.15;;
32427;SDS011;18882;50.952;4.366;2023-03-31T09:37:07;14.70;;;2.80;;
32427;SDS011;18882;50.952;4.366;2023-03-31T09:39:40;15.02;;;2.53;;
32427;SDS011;18882;50.952;4.366;2023-03-31T09:42:12;22.83;;;3.00;;
32427;SDS011;18882;50.952;4.366;2023-03-31T09:45:13;9.82;;;2.65;;
32427;SDS011;18882;50.952;4.366;2023-03-31T09:48:14;19.85;;;2.13;;
32427;SDS011;18882;50.952;4.366;2023-03-31T09:50:48;17.10;;;2.15;;
32427;SDS011;18882;50.952;4.366;2023-03-31T09:53:18;21.23;;;2.53;;
32427;SDS011;18882;50.952;4.366;2023-03-31T09:56:11;21.67;;;2.77;;
32427;SDS011;18882;50.952;4.366;2023-03-31T09:58:41;14.55;;;3.63;;
32427;SDS011;18882;50.952;4.366;2023-03-31T10:01:11;12.10;;;1.90;;
32427;SDS011;18882;50.952;4.366;2023-03-31T10:03:46;21.08;;;3.95;;
32427;SDS011;18882;50.952;4.366;2023-03-31T10:06:18;14.00;;;2.72;;
32427;SDS011;18882;50.952;4.366;2023-03-31T10:08:54;20.15;;;2.55;;
32427;SDS011;18882;50.952;4.366;2023-03-31T10:11:27;16.48;;;2.22;;
32427;SDS011;18882;50.952;4.366;2023-03-31T10:14:03;13.68;;;1.88;;
32427;SDS011;18882;50.952;4.366;2023-03-31T10:16:44;12.80;;;2.38;;
32427;SDS011;18882;50.952;4.366;2023-03-31T10:19:47;15.13;;;2.35;;
32427;SDS011;18882;50.952;4.366;2023-03-31T10:22:25;9.90;;;2.40;;
32427;SDS011;18882;50.952;4.366;2023-03-31T10:25:03;10.43;;;1.80;;
32427;SDS011;18882;50.952;4.366;2023-03-31T10:27:40;12.70;;;2.22;;
32427;SDS011;18882;50.952;4.366;2023-03-31T10:30:08;12.77;;;1.75;;
32427;SDS011;18882;50.952;4.366;2023-03-31T10:32:42;13.02;;;2.33;;
32427;SDS011;18882;50.952;4.366;2023-03-31T10:35:18;10.93;;;2.42;;
32427;SDS011;18882;50.952;4.366;2023-03-31T10:38:09;13.82;;;2.38;;
32427;SDS011;18882;50.952;4.366;2023-03-31T10:40:38;24.13;;;2.22;;
32427;SDS011;18882;50.952;4.366;2023-03-31T10:43:19;23.77;;;2.10;;
32427;SDS011;18882;50.952;4.366;2023-03-31T10:45:53;13.00;;;2.08;;
32427;SDS011;18882;50.952;4.366;2023-03-31T10:48:25;14.13;;;1.73;;
32427;SDS011;18882;50.952;4.366;2023-03-31T10:50:53;13.73;;;2.08;;
32427;SDS011;18882;50.952;4.366;2023-03-31T10:53:22;14.80;;;1.52;;
32427;SDS011;18882;50.952;4.366;2023-03-31T10:56:04;13.05;;;1.98;;
32427;SDS011;18882;50.952;4.366;2023-03-31T11:12:42;11.60;;;1.67;;
32427;SDS011;18882;50.952;4.366;2023-03-31T11:21:22;10.70;;;1.95;;
32427;SDS011;18882;50.952;4.366;2023-03-31T11:24:05;8.25;;;1.30;;
32427;SDS011;18882;50.952;4.366;2023-03-31T11:26:50;11.18;;;1.67;;
32427;SDS011;18882;50.952;4.366;2023-03-31T11:35:13;15.85;;;1.83;;
32427;SDS011;18882;50.952;4.366;2023-03-31T11:46:30;9.63;;;1.73;;
32427;SDS011;18882;50.952;4.366;2023-03-31T11:51:33;7.17;;;1.37;;
32427;SDS011;18882;50.952;4.366;2023-03-31T11:54:15;8.85;;;1.73;;
32427;SDS011;18882;50.952;4.366;2023-03-31T11:56:49;9.38;;;1.63;;
32427;SDS011;18882;50.952;4.366;2023-03-31T11:59:16;5.85;;;1.20;;
32427;SDS011;18882;50.952;4.366;2023-03-31T12:04:32;7.00;;;0.93;;
32427;SDS011;18882;50.952;4.366;2023-03-31T12:10:10;12.25;;;1.05;;
32427;SDS011;18882;50.952;4.366;2023-03-31T12:18:09;9.87;;;1.20;;
32427;SDS011;18882;50.952;4.366;2023-03-31T12:20:40;4.60;;;1.33;;
32427;SDS011;18882;50.952;4.366;2023-03-31T12:23:17;8.83;;;1.70;;
32427;SDS011;18882;50.952;4.366;2023-03-31T12:25:49;10.50;;;1.80;;
32427;SDS011;18882;50.952;4.366;2023-03-31T12:28:20;9.33;;;1.77;;
32427;SDS011;18882;50.952;4.366;2023-03-31T12:30:47;5.20;;;0.77;;
32427;SDS011;18882;50.952;4.366;2023-03-31T12:33:16;7.28;;;1.38;;
32427;SDS011;18882;50.952;4.366;2023-03-31T12:35:50;6.28;;;1.20;;
32427;SDS011;18882;50.952;4.366;2023-03-31T12:41:18;4.93;;;0.80;;
32427;SDS011;18882;50.952;4.366;2023-03-31T12:52:29;5.10;;;0.60;;
32427;SDS011;18882;50.952;4.366;2023-03-31T13:05:58;3.63;;;0.63;;
32427;SDS011;18882;50.952;4.366;2023-03-31T13:08:47;8.82;;;0.63;;
32427;SDS011;18882;50.952;4.366;2023-03-31T13:11:21;1.65;;;0.60;;
32427;SDS011;18882;50.952;4.366;2023-03-31T13:14:10;1.88;;;0.57;;
32427;SDS011;18882;50.952;4.366;2023-03-31T13:16:37;2.65;;;0.40;;
32427;SDS011;18882;50.952;4.366;2023-03-31T13:19:03;4.68;;;0.63;;
32427;SDS011;18882;50.952;4.366;2023-03-31T13:21:29;3.08;;;0.30;;
32427;SDS011;18882;50.952;4.366;2023-03-31T13:23:59;1.13;;;0.30;;
32427;SDS011;18882;50.952;4.366;2023-03-31T13:34:50;7.07;;;0.80;;
32427;SDS011;18882;50.952;4.366;2023-03-31T13:37:40;1.45;;;0.17;;
32427;SDS011;18882;50.952;4.366;2023-03-31T13:40:45;3.80;;;0.20;;
32427;SDS011;18882;50.952;4.366;2023-03-31T14:01:01;0.13;;;0.10;;
32427;SDS011;18882;50.952;4.366;2023-03-31T14:04:07;1.08;;;0.20;;
32427;SDS011;18882;50.952;4.366;2023-03-31T14:09:44;0.10;;;0.10;;
32427;SDS011;18882;50.952;4.366;2023-03-31T14:12:36;0.10;;;0.10;;
32427;SDS011;18882;50.952;4.366;2023-03-31T14:15:03;2.17;;;0.10;;
32427;SDS011;18882;50.952;4.366;2023-03-31T14:17:37;3.38;;;0.30;;
32427;SDS011;18882;50.952;4.366;2023-03-31T14:39:50;0.13;;;0.10;;
32427;SDS011;18882;50.952;4.366;2023-03-31T14:42:26;2.85;;;0.20;;
32427;SDS011;18882;50.952;4.366;2023-03-31T14:45:10;0.10;;;0.05;;
32427;SDS011;18882;50.952;4.366;2023-03-31T15:00:43;1.98;;;0.10;;
32427;SDS011;18882;50.952;4.366;2023-03-31T15:06:45;0.30;;;0.10;;
32427;SDS011;18882;50.952;4.366;2023-03-31T15:12:31;1.00;;;0.30;;
32427;SDS011;18882;50.952;4.366;2023-03-31T15:15:16;2.47;;;0.20;;
32427;SDS011;18882;50.952;4.366;2023-03-31T15:17:45;3.35;;;0.20;;
32427;SDS011;18882;50.952;4.366;2023-03-31T15:22:53;2.70;;;0.40;;
32427;SDS011;18882;50.952;4.366;2023-03-31T15:25:33;4.85;;;0.63;;
32427;SDS011;18882;50.952;4.366;2023-03-31T15:28:04;7.85;;;0.98;;
32427;SDS011;18882;50.952;4.366;2023-03-31T15:30:34;2.00;;;0.30;;
32427;SDS011;18882;50.952;4.366;2023-03-31T15:33:00;4.07;;;0.47;;
32427;SDS011;18882;50.952;4.366;2023-03-31T15:35:28;3.75;;;0.55;;
32427;SDS011;18882;50.952;4.366;2023-03-31T15:37:56;3.17;;;0.30;;
32427;SDS011;18882;50.952;4.366;2023-03-31T15:40:24;2.00;;;0.20;;
32427;SDS011;18882;50.952;4.366;2023-03-31T15:42:54;2.03;;;0.20;;
32427;SDS011;18882;50.952;4.366;2023-03-31T15:45:35;5.97;;;0.75;;
32427;SDS011;18882;50.952;4.366;2023-03-31T15:48:14;3.10;;;0.50;;
32427;SDS011;18882;50.952;4.366;2023-03-31T15:50:43;3.33;;;0.77;;
32427;SDS011;18882;50.952;4.366;2023-03-31T15:53:20;1.20;;;0.40;;
32427;SDS011;18882;50.952;4.366;2023-03-31T15:55:55;4.18;;;0.65;;
32427;SDS011;18882;50.952;4.366;2023-03-31T16:01:36;3.97;;;0.70;;
32427;SDS011;18882;50.952;4.366;2023-03-31T16:04:10;6.20;;;0.68;;
32427;SDS011;18882;50.952;4.366;2023-03-31T16:06:47;5.47;;;0.77;;
32427;SDS011;18882;50.952;4.366;2023-03-31T16:12:58;3.72;;;0.82;;
32427;SDS011;18882;50.952;4.366;2023-03-31T16:15:34;1.10;;;0.38;;
32427;SDS011;18882;50.952;4.366;2023-03-31T16:18:05;4.97;;;0.65;;
32427;SDS011;18882;50.952;4.366;2023-03-31T16:20:35;3.63;;;0.22;;
32427;SDS011;18882;50.952;4.366;2023-03-31T16:23:15;5.57;;;0.52;;
32427;SDS011;18882;50.952;4.366;2023-03-31T16:25:43;8.60;;;1.10;;
32427;SDS011;18882;50.952;4.366;2023-03-31T16:28:18;3.78;;;0.70;;
32427;SDS011;18882;50.952;4.366;2023-03-31T16:30:49;13.18;;;0.90;;
32427;SDS011;18882;50.952;4.366;2023-03-31T16:33:16;5.30;;;1.00;;
32427;SDS011;18882;50.952;4.366;2023-03-31T16:35:48;3.55;;;0.90;;
32427;SDS011;18882;50.952;4.366;2023-03-31T16:38:20;8.07;;;1.23;;
32427;SDS011;18882;50.952;4.366;2023-03-31T16:40:47;7.72;;;1.33;;
32427;SDS011;18882;50.952;4.366;2023-03-31T16:45:46;4.57;;;1.27;;
32427;SDS011;18882;50.952;4.366;2023-03-31T16:48:14;9.45;;;1.42;;
32427;SDS011;18882;50.952;4.366;2023-03-31T16:50:41;12.10;;;1.60;;
32427;SDS011;18882;50.952;4.366;2023-03-31T16:53:11;20.65;;;5.05;;
32427;SDS011;18882;50.952;4.366;2023-03-31T16:55:39;3.60;;;1.10;;
32427;SDS011;18882;50.952;4.366;2023-03-31T16:58:28;16.98;;;1.88;;
32427;SDS011;18882;50.952;4.366;2023-03-31T17:00:55;9.70;;;1.35;;
32427;SDS011;18882;50.952;4.366;2023-03-31T17:03:22;9.43;;;1.40;;
32427;SDS011;18882;50.952;4.366;2023-03-31T17:05:49;10.38;;;1.35;;
32427;SDS011;18882;50.952;4.366;2023-03-31T17:08:17;12.48;;;1.80;;
32427;SDS011;18882;50.952;4.366;2023-03-31T17:10:53;12.38;;;1.77;;
32427;SDS011;18882;50.952;4.366;2023-03-31T17:13:27;2.88;;;1.00;;
32427;SDS011;18882;50.952;4.366;2023-03-31T17:15:56;8.63;;;1.83;;
32427;SDS011;18882;50.952;4.366;2023-03-31T17:18:23;11.80;;;1.52;;
32427;SDS011;18882;50.952;4.366;2023-03-31T17:20:49;11.98;;;1.08;;
32427;SDS011;18882;50.952;4.366;2023-03-31T17:23:17;8.55;;;2.30;;
32427;SDS011;18882;50.952;4.366;2023-03-31T17:25:47;8.40;;;1.00;;
32427;SDS011;18882;50.952;4.366;2023-03-31T17:28:14;11.07;;;1.38;;
32427;SDS011;18882;50.952;4.366;2023-03-31T17:30:40;9.82;;;1.65;;
32427;SDS011;18882;50.952;4.366;2023-03-31T17:33:17;5.88;;;1.35;;
32427;SDS011;18882;50.952;4.366;2023-03-31T17:36:09;8.45;;;1.08;;
32427;SDS011;18882;50.952;4.366;2023-03-31T17:41:19;9.32;;;1.20;;
32427;SDS011;18882;50.952;4.366;2023-03-31T17:43:48;5.82;;;1.25;;
32427;SDS011;18882;50.952;4.366;2023-03-31T17:46:14;11.70;;;2.28;;
32427;SDS011;18882;50.952;4.366;2023-03-31T17:48:51;9.65;;;1.85;;
32427;SDS011;18882;50.952;4.366;2023-03-31T17:51:18;7.10;;;0.95;;
32427;SDS011;18882;50.952;4.366;2023-03-31T17:53:45;6.80;;;1.48;;
32427;SDS011;18882;50.952;4.366;2023-03-31T17:56:12;8.88;;;2.75;;
32427;SDS011;18882;50.952;4.366;2023-03-31T17:58:38;14.85;;;1.77;;
32427;SDS011;18882;50.952;4.366;2023-03-31T18:01:05;10.07;;;1.55;;
32427;SDS011;18882;50.952;4.366;2023-03-31T18:03:33;10.40;;;2.17;;
32427;SDS011;18882;50.952;4.366;2023-03-31T18:06:03;13.18;;;2.15;;
32427;SDS011;18882;50.952;4.366;2023-03-31T18:08:35;14.13;;;1.83;;
32427;SDS011;18882;50.952;4.366;2023-03-31T18:11:01;6.95;;;1.70;;
32427;SDS011;18882;50.952;4.366;2023-03-31T18:13:29;8.60;;;1.40;;
32427;SDS011;18882;50.952;4.366;2023-03-31T18:15:56;14.23;;;2.55;;
32427;SDS011;18882;50.952;4.366;2023-03-31T18:18:22;10.20;;;1.30;;
32427;SDS011;18882;50.952;4.366;2023-03-31T18:21:01;7.97;;;1.42;;
32427;SDS011;18882;50.952;4.366;2023-03-31T18:26:16;11.90;;;1.77;;
32427;SDS011;18882;50.952;4.366;2023-03-31T18:28:43;13.02;;;1.67;;
32427;SDS011;18882;50.952;4.366;2023-03-31T18:31:09;10.77;;;1.50;;
32427;SDS011;18882;50.952;4.366;2023-03-31T18:33:39;15.60;;;1.83;;
32427;SDS011;18882;50.952;4.366;2023-03-31T18:36:39;22.35;;;2.80;;
32427;SDS011;18882;50.952;4.366;2023-03-31T18:39:10;18.33;;;1.85;;
32427;SDS011;18882;50.952;4.366;2023-03-31T18:41:38;13.70;;;1.73;;
32427;SDS011;18882;50.952;4.366;2023-03-31T18:44:15;15.32;;;1.25;;
32427;SDS011;18882;50.952;4.366;2023-03-31T18:46:42;9.93;;;1.70;;
32427;SDS011;18882;50.952;4.366;2023-03-31T18:49:08;14.95;;;2.13;;
32427;SDS011;18882;50.952;4.366;2023-03-31T18:51:35;9.27;;;1.52;;
32427;SDS011;18882;50.952;4.366;2023-03-31T18:54:01;13.93;;;1.83;;
32427;SDS011;18882;50.952;4.366;2023-03-31T18:56:30;9.90;;;1.23;;
32427;SDS011;18882;50.952;4.366;2023-03-31T18:59:06;8.07;;;1.92;;
32427;SDS011;18882;50.952;4.366;2023-03-31T19:01:44;12.55;;;1.80;;
32427;SDS011;18882;50.952;4.366;2023-03-31T19:04:20;18.33;;;2.05;;
32427;SDS011;18882;50.952;4.366;2023-03-31T19:06:58;12.05;;;1.80;;
32427;SDS011;18882;50.952;4.366;2023-03-31T19:09:24;17.30;;;2.00;;
32427;SDS011;18882;50.952;4.366;2023-03-31T19:11:52;13.13;;;2.03;;
32427;SDS011;18882;50.952;4.366;2023-03-31T19:14:17;21.65;;;1.88;;
32427;SDS011;18882;50.952;4.366;2023-03-31T19:16:43;14.07;;;2.30;;